createdAt,value
2019-03-23T00:00:18.464Z,4.91
2019-03-23T00:01:18.405Z,4.83
2019-03-23T00:02:18.438Z,4.71
2019-03-23T00:03:18.377Z,4.69
2019-03-23T00:04:18.366Z,4.62
2019-03-23T00:05:18.357Z,4.49
2019-03-23T00:06:18.379Z,4.47
2019-03-23T00:07:18.338Z,4.50
2019-03-23T00:08:18.410Z,4.44
2019-03-23T00:09:19.399Z,4.36
2019-03-23T00:10:18.310Z,4.39
2019-03-23T00:11:18.300Z,4.38
2019-03-23T00:12:18.281Z,4.36
2019-03-23T00:13:18.341Z,4.36
2019-03-23T00:14:18.257Z,4.36
2019-03-23T00:15:18.288Z,4.34
2019-03-23T00:16:18.225Z,4.28
2019-03-23T00:17:18.363Z,4.39
2019-03-23T00:18:18.203Z,4.34
2019-03-23T00:19:19.273Z,4.46
2019-03-23T00:20:18.184Z,4.46
2019-03-23T00:21:18.287Z,4.49
2019-03-23T00:22:18.156Z,4.49
2019-03-23T00:23:18.265Z,4.51
2019-03-23T00:24:18.133Z,4.57
2019-03-23T00:25:18.126Z,4.65
2019-03-23T00:26:18.232Z,4.62
2019-03-23T00:27:18.107Z,4.65
2019-03-23T00:28:18.208Z,4.61
2019-03-23T00:29:18.080Z,4.67
2019-03-23T00:30:18.100Z,4.65
2019-03-23T00:31:18.062Z,4.65
2019-03-23T00:32:18.144Z,4.65
2019-03-23T00:33:18.067Z,4.69
2019-03-23T00:34:26.061Z,4.65
2019-03-23T00:35:18.033Z,4.62
2019-03-23T00:36:18.002Z,4.54
2019-03-23T00:37:18.082Z,4.42
2019-03-23T00:38:18.014Z,4.38
2019-03-23T00:39:18.013Z,4.31
2019-03-23T00:40:17.973Z,4.25
2019-03-23T00:41:17.967Z,4.17
2019-03-23T00:42:17.946Z,4.25
2019-03-23T00:43:19.065Z,4.28
2019-03-23T00:44:17.946Z,4.24
2019-03-23T00:45:18.030Z,4.26
2019-03-23T00:46:17.907Z,4.26
2019-03-23T00:47:17.957Z,4.39
2019-03-23T00:48:17.888Z,4.35
2019-03-23T00:49:17.902Z,4.21
2019-03-23T00:50:17.858Z,4.20
2019-03-23T00:51:17.939Z,4.07
2019-03-23T00:52:17.829Z,4.16
2019-03-23T00:53:17.921Z,4.11
2019-03-23T00:54:17.810Z,4.04
2019-03-23T00:55:17.901Z,4.06
2019-03-23T00:56:17.788Z,4.07
2019-03-23T00:57:17.781Z,4.10
2019-03-23T00:58:17.792Z,4.11
2019-03-23T00:59:17.773Z,4.07
2019-03-23T01:00:17.742Z,4.07
2019-03-23T01:01:17.803Z,4.10
2019-03-23T01:02:17.704Z,4.08
2019-03-23T01:03:17.694Z,4.08
2019-03-23T01:04:18.778Z,4.02
2019-03-23T01:05:17.684Z,3.90
2019-03-23T01:06:18.776Z,3.90
2019-03-23T01:07:17.666Z,3.95
2019-03-23T01:08:17.667Z,3.90
2019-03-23T01:09:17.657Z,3.95
2019-03-23T01:10:18.630Z,3.99
2019-03-23T01:11:17.618Z,3.88
2019-03-23T01:12:17.658Z,3.84
2019-03-23T01:13:18.649Z,3.84
2019-03-23T01:14:17.598Z,3.89
2019-03-23T01:15:17.673Z,3.92
2019-03-23T01:16:17.563Z,3.84
2019-03-23T01:17:17.600Z,3.81
2019-03-23T01:18:17.588Z,3.80
2019-03-23T01:19:17.581Z,3.88
2019-03-23T01:20:17.532Z,3.81
2019-03-23T01:21:25.048Z,3.88
2019-03-23T01:22:17.503Z,3.84
2019-03-23T01:23:18.534Z,3.81
2019-03-23T01:24:17.482Z,3.82
2019-03-23T01:25:17.544Z,3.82
2019-03-23T01:26:17.486Z,3.80
2019-03-23T01:27:18.505Z,3.84
2019-03-23T01:28:17.438Z,3.81
2019-03-23T01:29:17.466Z,3.82
2019-03-23T01:30:17.417Z,3.80
2019-03-23T01:31:18.476Z,3.84
2019-03-23T01:32:17.398Z,3.78
2019-03-23T01:33:17.489Z,3.78
2019-03-23T01:34:17.392Z,3.72
2019-03-23T01:35:20.029Z,3.72
2019-03-23T01:36:17.399Z,3.68
2019-03-23T01:37:17.341Z,3.67
2019-03-23T01:38:17.439Z,3.77
2019-03-23T01:39:17.324Z,3.70
2019-03-23T01:40:17.361Z,3.82
2019-03-23T01:41:17.281Z,3.72
2019-03-23T01:42:17.292Z,3.81
2019-03-23T01:43:17.262Z,3.78
2019-03-23T01:44:17.382Z,3.80
2019-03-23T01:45:17.243Z,3.81
2019-03-23T01:46:17.235Z,3.77
2019-03-23T01:47:17.244Z,3.84
2019-03-23T01:48:17.207Z,3.60
2019-03-23T01:49:17.325Z,3.63
2019-03-23T01:50:17.185Z,3.59
2019-03-23T01:51:17.165Z,3.53
2019-03-23T01:52:17.166Z,3.45
2019-03-23T01:53:17.283Z,3.49
2019-03-23T01:54:17.157Z,3.50
2019-03-23T01:55:17.187Z,3.35
2019-03-23T01:56:17.118Z,3.44
2019-03-23T01:57:17.109Z,3.44
2019-03-23T01:58:25.069Z,3.53
2019-03-23T01:59:17.099Z,3.44
2019-03-23T02:00:19.180Z,3.54
2019-03-23T02:01:17.061Z,3.56
2019-03-23T02:02:17.061Z,3.60
2019-03-23T02:03:18.164Z,3.59
2019-03-23T02:04:17.042Z,3.56
2019-03-23T02:05:17.072Z,3.46
2019-03-23T02:06:17.013Z,3.49
2019-03-23T02:07:18.038Z,3.44
2019-03-23T02:08:16.994Z,3.34
2019-03-23T02:09:18.016Z,3.39
2019-03-23T02:10:16.976Z,3.37
2019-03-23T02:11:16.985Z,3.31
2019-03-23T02:12:16.946Z,3.37
2019-03-23T02:13:16.937Z,3.37
2019-03-23T02:14:18.015Z,3.39
2019-03-23T02:15:16.930Z,3.35
2019-03-23T02:16:16.927Z,3.42
2019-03-23T02:17:16.890Z,3.42
2019-03-23T02:18:16.879Z,3.35
2019-03-23T02:19:16.869Z,3.35
2019-03-23T02:20:16.949Z,3.42
2019-03-23T02:21:16.849Z,3.41
2019-03-23T02:22:17.860Z,3.35
2019-03-23T02:23:16.810Z,3.35
2019-03-23T02:24:16.861Z,3.25
2019-03-23T02:25:16.813Z,3.16
2019-03-23T02:26:16.793Z,3.13
2019-03-23T02:27:16.772Z,3.13
2019-03-23T02:28:16.833Z,3.12
2019-03-23T02:29:16.743Z,3.13
2019-03-23T02:30:16.814Z,3.13
2019-03-23T02:31:16.725Z,3.07
2019-03-23T02:32:17.740Z,3.10
2019-03-23T02:33:16.706Z,3.17
2019-03-23T02:34:16.687Z,3.13
2019-03-23T02:35:16.725Z,3.16
2019-03-23T02:36:16.728Z,3.19
2019-03-23T02:37:27.260Z,3.23
2019-03-23T02:38:17.658Z,3.25
2019-03-23T02:39:16.692Z,3.22
2019-03-23T02:40:16.639Z,3.31
2019-03-23T02:41:16.729Z,3.31
2019-03-23T02:42:16.651Z,3.34
2019-03-23T02:43:16.660Z,3.34
2019-03-23T02:44:16.581Z,3.30
2019-03-23T02:45:16.592Z,3.31
2019-03-23T02:46:16.562Z,3.15
2019-03-23T02:47:16.634Z,3.05
2019-03-23T02:48:16.534Z,2.95
2019-03-23T02:49:18.624Z,2.98
2019-03-23T02:50:16.534Z,2.99
2019-03-23T02:51:16.615Z,2.87
2019-03-23T02:52:16.494Z,2.83
2019-03-23T02:53:16.547Z,2.90
2019-03-23T02:54:16.476Z,2.97
2019-03-23T02:55:16.531Z,2.89
2019-03-23T02:56:16.557Z,2.81
2019-03-23T02:57:16.437Z,2.90
2019-03-23T02:58:17.511Z,2.99
2019-03-23T02:59:16.417Z,2.99
2019-03-23T03:00:16.468Z,2.99
2019-03-23T03:01:16.398Z,2.99
2019-03-23T03:02:17.492Z,3.02
2019-03-23T03:03:16.459Z,2.99
2019-03-23T03:04:16.400Z,2.94
2019-03-23T03:05:16.362Z,2.97
2019-03-23T03:06:16.432Z,2.95
2019-03-23T03:07:16.323Z,2.87
2019-03-23T03:08:16.375Z,2.89
2019-03-23T03:09:16.295Z,2.83
2019-03-23T03:10:16.349Z,2.86
2019-03-23T03:11:16.279Z,2.89
2019-03-23T03:12:16.265Z,2.81
2019-03-23T03:13:16.256Z,2.86
2019-03-23T03:14:16.273Z,2.98
2019-03-23T03:15:16.245Z,2.87
2019-03-23T03:16:16.305Z,2.99
2019-03-23T03:17:16.277Z,2.89
2019-03-23T03:18:16.218Z,2.76
2019-03-23T03:19:16.217Z,2.76
2019-03-23T03:20:16.187Z,2.66
2019-03-23T03:21:17.281Z,2.68
2019-03-23T03:22:16.158Z,2.73
2019-03-23T03:23:16.193Z,2.63
2019-03-23T03:24:16.138Z,2.56
2019-03-23T03:25:16.169Z,2.65
2019-03-23T03:26:16.109Z,2.59
2019-03-23T03:27:16.162Z,2.59
2019-03-23T03:28:16.131Z,2.62
2019-03-23T03:29:16.081Z,2.62
2019-03-23T03:30:17.141Z,2.58
2019-03-23T03:31:16.061Z,2.62
2019-03-23T03:32:17.135Z,2.63
2019-03-23T03:33:16.023Z,2.66
2019-03-23T03:34:18.095Z,2.53
2019-03-23T03:35:16.025Z,2.51
2019-03-23T03:36:16.074Z,2.59
2019-03-23T03:37:15.995Z,2.62
2019-03-23T03:38:16.020Z,2.59
2019-03-23T03:39:15.965Z,2.62
2019-03-23T03:40:16.006Z,2.66
2019-03-23T03:41:15.952Z,2.62
2019-03-23T03:42:15.987Z,2.59
2019-03-23T03:43:15.916Z,2.58
2019-03-23T03:44:15.930Z,2.61
2019-03-23T03:45:15.919Z,2.58
2019-03-23T03:46:15.968Z,2.47
2019-03-23T03:47:15.880Z,2.41
2019-03-23T03:48:16.919Z,2.50
2019-03-23T03:49:15.859Z,2.48
2019-03-23T03:50:15.880Z,2.45
2019-03-23T03:51:15.831Z,2.48
2019-03-23T03:52:15.861Z,2.50
2019-03-23T03:53:15.802Z,2.53
2019-03-23T03:54:15.907Z,2.53
2019-03-23T03:55:15.802Z,2.50
2019-03-23T03:56:15.836Z,2.45
2019-03-23T03:57:15.767Z,2.41
2019-03-23T03:58:15.773Z,2.44
2019-03-23T03:59:15.840Z,2.38
2019-03-23T04:00:15.764Z,2.45
2019-03-23T04:01:15.716Z,2.33
2019-03-23T04:02:15.748Z,2.40
2019-03-23T04:03:15.690Z,2.41
2019-03-23T04:04:15.787Z,2.33
2019-03-23T04:05:15.684Z,2.32
2019-03-23T04:06:15.659Z,2.36
2019-03-23T04:07:15.667Z,2.30
2019-03-23T04:08:15.658Z,2.30
2019-03-23T04:09:15.618Z,2.43
2019-03-23T04:10:15.752Z,2.38
2019-03-23T04:11:15.614Z,2.44
2019-03-23T04:12:15.631Z,2.33
2019-03-23T04:13:15.580Z,2.32
2019-03-23T04:14:15.669Z,2.32
2019-03-23T04:15:15.571Z,2.29
2019-03-23T04:16:15.540Z,2.25
2019-03-23T04:17:15.561Z,2.23
2019-03-23T04:18:16.561Z,2.20
2019-03-23T04:19:15.526Z,2.33
2019-03-23T04:20:16.539Z,2.23
2019-03-23T04:21:15.508Z,2.23
2019-03-23T04:22:15.496Z,2.33
2019-03-23T04:23:16.512Z,2.40
2019-03-23T04:24:15.465Z,2.37
2019-03-23T04:25:16.501Z,2.20
2019-03-23T04:26:15.437Z,2.29
2019-03-23T04:27:15.427Z,2.29
2019-03-23T04:28:15.421Z,2.26
2019-03-23T04:29:15.497Z,2.20
2019-03-23T04:30:15.397Z,2.37
2019-03-23T04:31:15.479Z,2.29
2019-03-23T04:32:15.376Z,2.30
2019-03-23T04:33:15.359Z,2.26
2019-03-23T04:34:16.461Z,2.27
2019-03-23T04:35:15.340Z,2.33
2019-03-23T04:36:15.401Z,2.27
2019-03-23T04:37:15.312Z,2.26
2019-03-23T04:38:22.653Z,2.14
2019-03-23T04:39:16.394Z,2.19
2019-03-23T04:40:15.304Z,2.22
2019-03-23T04:41:15.332Z,2.18
2019-03-23T04:42:15.253Z,2.19
2019-03-23T04:43:16.253Z,2.19
2019-03-23T04:44:15.235Z,2.18
2019-03-23T04:45:15.273Z,2.18
2019-03-23T04:46:15.227Z,2.19
2019-03-23T04:47:15.306Z,2.27
2019-03-23T04:48:15.185Z,2.22
2019-03-23T04:49:15.175Z,2.27
2019-03-23T04:50:17.256Z,2.26
2019-03-23T04:51:15.166Z,2.29
2019-03-23T04:52:16.167Z,2.20
2019-03-23T04:53:15.131Z,2.14
2019-03-23T04:54:15.118Z,2.15
2019-03-23T04:55:15.110Z,2.08
2019-03-23T04:56:17.208Z,2.04
2019-03-23T04:57:15.080Z,2.05
2019-03-23T04:58:15.160Z,2.07
2019-03-23T04:59:15.059Z,2.00
2019-03-23T05:00:15.053Z,1.98
2019-03-23T05:01:15.052Z,1.95
2019-03-23T05:02:16.053Z,2.09
2019-03-23T05:03:15.023Z,2.09
2019-03-23T05:04:15.062Z,2.00
2019-03-23T05:05:17.082Z,2.05
2019-03-23T05:06:15.004Z,2.11
2019-03-23T05:07:15.995Z,2.04
2019-03-23T05:08:14.975Z,2.08
2019-03-23T05:09:15.004Z,2.04
2019-03-23T05:10:14.944Z,2.09
2019-03-23T05:11:16.015Z,2.07
2019-03-23T05:12:14.926Z,2.08
2019-03-23T05:13:14.976Z,2.11
2019-03-23T05:14:14.906Z,2.12
2019-03-23T05:15:14.908Z,2.05
2019-03-23T05:16:14.898Z,2.00
2019-03-23T05:17:14.947Z,2.00
2019-03-23T05:18:14.858Z,2.00
2019-03-23T05:19:14.893Z,2.00
2019-03-23T05:20:14.838Z,2.07
2019-03-23T05:21:14.831Z,2.01
2019-03-23T05:22:14.801Z,2.11
2019-03-23T05:23:14.858Z,2.00
2019-03-23T05:24:14.785Z,2.19
2019-03-23T05:25:15.811Z,2.14
2019-03-23T05:26:15.052Z,2.19
2019-03-23T05:27:16.774Z,2.09
2019-03-23T05:28:14.732Z,2.07
2019-03-23T05:29:14.762Z,1.95
2019-03-23T05:30:14.713Z,1.92
2019-03-23T05:31:14.743Z,1.95
2019-03-23T05:32:15.785Z,1.92
2019-03-23T05:33:14.677Z,1.89
2019-03-23T05:34:14.706Z,1.93
2019-03-23T05:35:14.655Z,1.85
2019-03-23T05:36:15.409Z,1.93
2019-03-23T05:37:14.707Z,1.90
2019-03-23T05:38:14.627Z,1.89
2019-03-23T05:39:14.638Z,1.93
2019-03-23T05:40:14.598Z,2.05
2019-03-23T05:41:14.629Z,2.08
2019-03-23T05:42:14.651Z,2.08
2019-03-23T05:43:14.578Z,2.07
2019-03-23T05:44:14.580Z,2.09
2019-03-23T05:45:14.539Z,2.08
2019-03-23T05:46:14.670Z,2.09
2019-03-23T05:47:14.520Z,2.05
2019-03-23T05:48:14.552Z,2.04
2019-03-23T05:49:14.514Z,2.00
2019-03-23T05:50:15.512Z,2.01
2019-03-23T05:51:14.502Z,2.04
2019-03-23T05:52:15.552Z,2.01
2019-03-23T05:53:14.493Z,2.01
2019-03-23T05:54:14.453Z,2.04
2019-03-23T05:55:15.454Z,2.11
2019-03-23T05:56:14.444Z,2.14
2019-03-23T05:57:14.465Z,2.02
2019-03-23T05:58:14.402Z,2.14
2019-03-23T05:59:14.505Z,2.14
2019-03-23T06:00:14.387Z,2.18
2019-03-23T06:01:14.477Z,2.18
2019-03-23T06:02:14.363Z,2.19
2019-03-23T06:03:14.388Z,2.12
2019-03-23T06:04:15.369Z,2.12
2019-03-23T06:05:14.319Z,2.19
2019-03-23T06:06:14.418Z,2.25
2019-03-23T06:07:14.303Z,2.22
2019-03-23T06:08:14.299Z,2.23
2019-03-23T06:09:16.332Z,2.27
2019-03-23T06:10:14.250Z,2.26
2019-03-23T06:11:15.281Z,2.32
2019-03-23T06:12:14.260Z,2.26
2019-03-23T06:13:14.255Z,2.25
2019-03-23T06:14:14.236Z,2.22
2019-03-23T06:15:14.204Z,2.22
2019-03-23T06:16:14.304Z,2.23
2019-03-23T06:17:14.173Z,2.27
2019-03-23T06:18:14.205Z,2.26
2019-03-23T06:19:14.164Z,2.30
2019-03-23T06:20:14.144Z,2.18
2019-03-23T06:21:15.264Z,2.23
2019-03-23T06:22:14.146Z,2.23
2019-03-23T06:23:14.236Z,2.15
2019-03-23T06:24:14.096Z,2.36
2019-03-23T06:25:14.097Z,2.22
2019-03-23T06:26:14.098Z,2.25
2019-03-23T06:27:14.108Z,2.32
2019-03-23T06:28:14.064Z,2.44
2019-03-23T06:29:15.068Z,2.41
2019-03-23T06:30:14.039Z,2.50
2019-03-23T06:31:16.169Z,2.50
2019-03-23T06:32:14.010Z,2.58
2019-03-23T06:33:15.040Z,2.55
2019-03-23T06:34:13.981Z,2.58
2019-03-23T06:35:14.051Z,2.55
2019-03-23T06:36:13.981Z,2.51
2019-03-23T06:37:14.032Z,2.48
2019-03-23T06:38:16.218Z,2.38
2019-03-23T06:39:15.044Z,2.43
2019-03-23T06:40:13.933Z,2.40
2019-03-23T06:41:13.924Z,2.41
2019-03-23T06:42:13.975Z,2.41
2019-03-23T06:43:13.894Z,2.41
2019-03-23T06:44:20.615Z,2.40
2019-03-23T06:45:13.873Z,2.50
2019-03-23T06:46:13.906Z,2.53
2019-03-23T06:47:13.867Z,2.51
2019-03-23T06:48:13.929Z,2.62
2019-03-23T06:49:13.819Z,2.58
2019-03-23T06:50:13.890Z,2.73
2019-03-23T06:51:13.817Z,2.66
2019-03-23T06:52:13.799Z,2.76
2019-03-23T06:53:13.778Z,2.71
2019-03-23T06:54:13.844Z,2.74
2019-03-23T06:55:13.749Z,2.77
2019-03-23T06:56:13.771Z,2.73
2019-03-23T06:57:13.750Z,2.73
2019-03-23T06:58:13.811Z,2.77
2019-03-23T06:59:13.722Z,2.89
2019-03-23T07:00:13.742Z,2.81
2019-03-23T07:01:13.683Z,2.90
2019-03-23T07:02:13.724Z,2.86
2019-03-23T07:03:13.663Z,2.95
2019-03-23T07:04:13.734Z,2.99
2019-03-23T07:05:13.634Z,3.12
2019-03-23T07:06:14.676Z,3.07
2019-03-23T07:07:13.625Z,3.10
2019-03-23T07:08:13.609Z,3.25
2019-03-23T07:09:16.411Z,3.59
2019-03-23T07:10:14.656Z,3.92
2019-03-23T07:11:13.567Z,4.20
2019-03-23T07:12:13.607Z,4.46
2019-03-23T07:13:13.638Z,4.67
2019-03-23T07:14:13.550Z,4.84
2019-03-23T07:15:19.911Z,5.05
2019-03-23T07:16:14.520Z,5.38
2019-03-23T07:17:13.559Z,5.60
2019-03-23T07:18:13.507Z,5.92
2019-03-23T07:19:13.544Z,6.27
2019-03-23T07:20:13.480Z,6.53
2019-03-23T07:21:13.478Z,6.68
2019-03-23T07:22:13.457Z,6.82
2019-03-23T07:23:13.563Z,6.96
2019-03-23T07:24:14.495Z,7.21
2019-03-23T07:25:13.424Z,7.47
2019-03-23T07:26:14.444Z,7.54
2019-03-23T07:27:13.396Z,7.71
2019-03-23T07:28:13.506Z,7.94
2019-03-23T07:29:13.425Z,8.13
2019-03-23T07:30:13.345Z,8.22
2019-03-23T07:31:14.386Z,8.47
2019-03-23T07:32:13.316Z,8.63
2019-03-23T07:33:14.359Z,8.75
2019-03-23T07:34:13.297Z,9.01
2019-03-23T07:35:21.108Z,9.20
2019-03-23T07:36:13.298Z,9.31
2019-03-23T07:37:13.358Z,9.50
2019-03-23T07:38:13.279Z,9.67
2019-03-23T07:39:13.299Z,9.67
2019-03-23T07:40:13.241Z,9.88
2019-03-23T07:41:13.330Z,10.11
2019-03-23T07:42:13.231Z,10.39
2019-03-23T07:43:13.312Z,10.52
2019-03-23T07:44:13.194Z,10.65
2019-03-23T07:45:13.184Z,10.80
2019-03-23T07:46:13.173Z,10.86
2019-03-23T07:47:13.244Z,11.03
2019-03-23T07:48:13.173Z,11.23
2019-03-23T07:49:21.175Z,11.27
2019-03-23T07:50:15.195Z,11.53
2019-03-23T07:51:13.126Z,11.59
2019-03-23T07:52:13.186Z,11.87
2019-03-23T07:53:13.116Z,12.04
2019-03-23T07:54:13.128Z,12.37
2019-03-23T07:55:13.087Z,12.43
2019-03-23T07:56:14.077Z,12.48
2019-03-23T07:57:13.059Z,12.54
2019-03-23T07:58:15.069Z,12.69
2019-03-23T07:59:13.040Z,12.80
2019-03-23T08:00:14.061Z,12.88
2019-03-23T08:01:12.990Z,12.98
2019-03-23T08:02:29.654Z,13.13
2019-03-23T08:03:12.993Z,13.32
2019-03-23T08:04:12.993Z,13.51
2019-03-23T08:05:12.953Z,13.57
2019-03-23T08:06:12.943Z,13.69
2019-03-23T08:07:12.935Z,13.96
2019-03-23T08:08:13.016Z,14.20
2019-03-23T08:09:20.426Z,14.48
2019-03-23T08:10:13.905Z,14.75
2019-03-23T08:11:13.285Z,14.93
2019-03-23T08:12:12.876Z,15.04
2019-03-23T08:13:13.987Z,15.23
2019-03-23T08:14:12.860Z,15.25
2019-03-23T08:15:12.948Z,15.00
2019-03-23T08:16:12.841Z,15.18
2019-03-23T08:17:12.829Z,15.12
2019-03-23T08:18:12.890Z,15.46
2019-03-23T08:19:12.800Z,15.73
2019-03-23T08:20:12.890Z,15.91
2019-03-23T08:21:12.791Z,16.13
2019-03-23T08:22:12.771Z,16.03
2019-03-23T08:23:12.842Z,15.99
2019-03-23T08:24:12.747Z,16.23
2019-03-23T08:25:12.744Z,16.44
2019-03-23T08:26:12.733Z,16.55
2019-03-23T08:27:12.704Z,16.81
2019-03-23T08:28:13.764Z,17.27
2019-03-23T08:29:12.715Z,17.49
2019-03-23T08:30:12.777Z,17.81
2019-03-23T08:31:12.677Z,18.01
2019-03-23T08:32:12.658Z,18.07
2019-03-23T08:33:12.650Z,17.81
2019-03-23T08:34:14.728Z,17.89
2019-03-23T08:35:12.628Z,17.79
2019-03-23T08:36:12.696Z,17.74
2019-03-23T08:37:12.601Z,17.55
2019-03-23T08:38:12.609Z,17.70
2019-03-23T08:39:12.590Z,17.77
2019-03-23T08:40:14.590Z,18.11
2019-03-23T08:41:12.551Z,18.41
2019-03-23T08:42:12.582Z,18.59
2019-03-23T08:43:12.534Z,18.72
2019-03-23T08:44:12.573Z,18.76
2019-03-23T08:45:12.503Z,18.66
2019-03-23T08:46:19.114Z,18.54
2019-03-23T08:47:12.459Z,18.53
2019-03-23T08:48:12.465Z,18.50
2019-03-23T08:49:12.486Z,18.68
2019-03-23T08:50:12.447Z,18.53
2019-03-23T08:51:12.450Z,18.46
2019-03-23T08:52:13.501Z,18.47
2019-03-23T08:53:12.439Z,18.47
2019-03-23T08:54:12.430Z,18.56
2019-03-23T08:55:12.479Z,18.65
2019-03-23T08:56:12.395Z,18.71
2019-03-23T08:57:12.412Z,18.75
2019-03-23T08:58:12.371Z,18.68
2019-03-23T08:59:12.382Z,18.65
2019-03-23T09:00:12.344Z,18.71
2019-03-23T09:01:13.402Z,18.74
2019-03-23T09:02:12.315Z,18.89
2019-03-23T09:03:12.415Z,19.01
2019-03-23T09:04:12.305Z,19.23
2019-03-23T09:05:12.354Z,19.40
2019-03-23T09:06:12.278Z,19.47
2019-03-23T09:07:12.286Z,19.45
2019-03-23T09:08:12.247Z,19.52
2019-03-23T09:09:12.247Z,19.53
2019-03-23T09:10:12.227Z,19.68
2019-03-23T09:11:20.492Z,19.57
2019-03-23T09:12:13.199Z,19.55
2019-03-23T09:13:12.311Z,19.52
2019-03-23T09:14:13.230Z,19.64
2019-03-23T09:15:12.171Z,19.65
2019-03-23T09:16:12.201Z,19.68
2019-03-23T09:17:12.152Z,19.57
2019-03-23T09:18:12.243Z,19.53
2019-03-23T09:19:12.153Z,19.62
2019-03-23T09:20:12.185Z,19.70
2019-03-23T09:21:12.996Z,19.68
2019-03-23T09:22:12.214Z,19.67
2019-03-23T09:23:12.097Z,19.65
2019-03-23T09:24:13.125Z,19.65
2019-03-23T09:25:12.065Z,19.67
2019-03-23T09:26:18.628Z,19.76
2019-03-23T09:27:12.690Z,19.80
2019-03-23T09:28:12.144Z,19.94
2019-03-23T09:29:12.008Z,19.97
2019-03-23T09:30:12.029Z,19.78
2019-03-23T09:31:11.990Z,20.22
2019-03-23T09:32:18.642Z,20.17
2019-03-23T09:33:11.971Z,20.26
2019-03-23T09:34:12.022Z,20.48
2019-03-23T09:35:11.961Z,20.51
2019-03-23T09:36:12.983Z,20.44
2019-03-23T09:37:11.933Z,20.25
2019-03-23T09:38:12.004Z,20.60
2019-03-23T09:39:11.904Z,21.27
2019-03-23T09:40:11.978Z,21.00
2019-03-23T09:41:18.656Z,20.78
2019-03-23T09:42:11.875Z,20.50
2019-03-23T09:43:11.946Z,20.48
2019-03-23T09:44:11.846Z,20.25
2019-03-23T09:45:14.156Z,20.34
2019-03-23T09:46:11.827Z,20.34
2019-03-23T09:47:12.839Z,20.33
2019-03-23T09:48:11.801Z,19.60
2019-03-23T09:49:11.849Z,19.32
2019-03-23T09:50:11.812Z,18.90
2019-03-23T09:51:11.893Z,18.66
2019-03-23T09:52:11.778Z,18.56
2019-03-23T09:53:11.836Z,18.47
2019-03-23T09:54:11.728Z,18.41
2019-03-23T09:55:11.802Z,18.35
2019-03-23T09:56:11.723Z,18.28
2019-03-23T09:57:11.703Z,18.09
2019-03-23T09:58:11.703Z,18.01
2019-03-23T09:59:11.725Z,18.01
2019-03-23T10:00:11.686Z,17.86
2019-03-23T10:01:11.665Z,17.70
2019-03-23T10:02:11.646Z,17.66
2019-03-23T10:03:11.717Z,17.70
2019-03-23T10:04:11.630Z,17.58
2019-03-23T10:05:13.720Z,17.53
2019-03-23T10:06:11.616Z,17.55
2019-03-23T10:07:12.703Z,17.68
2019-03-23T10:08:13.690Z,17.66
2019-03-23T10:09:11.580Z,17.70
2019-03-23T10:10:21.661Z,17.68
2019-03-23T10:11:12.574Z,17.71
2019-03-23T10:12:11.623Z,17.55
2019-03-23T10:13:11.533Z,17.65
2019-03-23T10:14:12.593Z,17.53
2019-03-23T10:15:11.534Z,17.53
2019-03-23T10:16:13.536Z,17.49
2019-03-23T10:17:11.486Z,17.54
2019-03-23T10:18:11.547Z,17.49
2019-03-23T10:19:11.456Z,17.55
2019-03-23T10:20:13.547Z,17.51
2019-03-23T10:21:11.440Z,17.55
2019-03-23T10:22:11.498Z,17.57
2019-03-23T10:23:11.408Z,17.66
2019-03-23T10:24:11.398Z,17.60
2019-03-23T10:25:11.450Z,17.70
2019-03-23T10:26:11.380Z,17.55
2019-03-23T10:27:11.441Z,17.42
2019-03-23T10:28:11.351Z,17.40
2019-03-23T10:29:11.371Z,17.47
2019-03-23T10:30:11.335Z,17.57
2019-03-23T10:31:11.344Z,17.49
2019-03-23T10:32:11.308Z,17.71
2019-03-23T10:33:11.334Z,17.74
2019-03-23T10:34:11.296Z,17.71
2019-03-23T10:35:11.285Z,17.66
2019-03-23T10:36:12.272Z,17.73
2019-03-23T10:37:11.339Z,17.74
2019-03-23T10:38:11.248Z,17.70
2019-03-23T10:39:11.248Z,17.76
2019-03-23T10:40:11.330Z,17.87
2019-03-23T10:41:11.228Z,17.81
2019-03-23T10:42:11.268Z,17.92
2019-03-23T10:43:11.190Z,18.04
2019-03-23T10:44:12.236Z,18.02
2019-03-23T10:45:11.161Z,18.04
2019-03-23T10:46:11.163Z,18.09
2019-03-23T10:47:11.353Z,18.02
2019-03-23T10:48:12.218Z,17.92
2019-03-23T10:49:11.141Z,17.96
2019-03-23T10:50:11.104Z,18.02
2019-03-23T10:51:11.097Z,17.84
2019-03-23T10:52:11.075Z,17.79
2019-03-23T10:53:23.014Z,17.79
2019-03-23T10:54:12.048Z,17.87
2019-03-23T10:55:12.067Z,17.89
2019-03-23T10:56:11.047Z,17.98
2019-03-23T10:57:11.019Z,17.98
2019-03-23T10:58:11.010Z,18.02
2019-03-23T10:59:12.043Z,17.98
2019-03-23T11:00:10.980Z,18.14
2019-03-23T11:01:12.040Z,18.02
2019-03-23T11:02:11.021Z,18.05
2019-03-23T11:03:10.961Z,17.91
2019-03-23T11:04:11.061Z,18.13
2019-03-23T11:05:10.944Z,18.10
2019-03-23T11:06:11.963Z,18.23
2019-03-23T11:07:10.918Z,18.07
2019-03-23T11:08:10.935Z,18.01
2019-03-23T11:09:10.881Z,17.99
2019-03-23T11:10:11.999Z,18.05
2019-03-23T11:11:10.867Z,18.01
2019-03-23T11:12:10.896Z,17.98
2019-03-23T11:13:11.890Z,17.98
2019-03-23T11:14:10.829Z,17.94
2019-03-23T11:15:11.929Z,18.02
2019-03-23T11:16:10.813Z,18.05
2019-03-23T11:17:10.890Z,18.11
2019-03-23T11:18:10.783Z,18.02
2019-03-23T11:19:13.621Z,18.14
2019-03-23T11:20:10.764Z,18.04
2019-03-23T11:21:10.814Z,17.95
2019-03-23T11:22:10.754Z,17.98
2019-03-23T11:23:10.753Z,18.04
2019-03-23T11:24:10.826Z,18.16
2019-03-23T11:25:10.893Z,18.14
2019-03-23T11:26:10.754Z,18.16
2019-03-23T11:27:10.705Z,18.32
2019-03-23T11:28:11.717Z,18.32
2019-03-23T11:29:10.667Z,18.41
2019-03-23T11:30:10.737Z,18.28
2019-03-23T11:31:10.647Z,18.26
2019-03-23T11:32:10.718Z,18.31
2019-03-23T11:33:10.624Z,18.20
2019-03-23T11:34:27.593Z,18.13
2019-03-23T11:35:10.687Z,18.16
2019-03-23T11:36:25.681Z,18.31
2019-03-23T11:37:10.659Z,18.35
2019-03-23T11:38:27.152Z,18.42
2019-03-23T11:39:10.544Z,18.41
2019-03-23T11:40:10.536Z,18.44
2019-03-23T11:41:10.524Z,18.39
2019-03-23T11:42:11.614Z,18.42
2019-03-23T11:43:10.502Z,18.38
2019-03-23T11:44:11.505Z,18.46
2019-03-23T11:45:10.480Z,18.57
2019-03-23T11:46:10.467Z,18.60
2019-03-23T11:47:10.768Z,18.64
2019-03-23T11:48:10.448Z,18.65
2019-03-23T11:49:12.469Z,18.60
2019-03-23T11:50:10.428Z,18.50
2019-03-23T11:51:10.616Z,18.51
2019-03-23T11:52:10.415Z,18.44
2019-03-23T11:53:10.501Z,18.50
2019-03-23T11:54:10.379Z,18.57
2019-03-23T11:55:10.433Z,18.41
2019-03-23T11:56:10.369Z,18.41
2019-03-23T11:57:10.424Z,18.54
2019-03-23T11:58:10.323Z,18.59
2019-03-23T11:59:11.427Z,18.65
2019-03-23T12:00:10.310Z,18.65
2019-03-23T12:01:10.336Z,18.64
2019-03-23T12:02:10.296Z,18.66
2019-03-23T12:03:10.379Z,18.62
2019-03-23T12:04:10.257Z,18.53
2019-03-23T12:05:12.425Z,18.51
2019-03-23T12:06:10.241Z,18.65
2019-03-23T12:07:10.249Z,18.71
2019-03-23T12:08:11.243Z,18.76
2019-03-23T12:09:10.209Z,18.74
2019-03-23T12:10:10.261Z,18.69
2019-03-23T12:11:10.191Z,18.66
2019-03-23T12:12:10.192Z,18.60
2019-03-23T12:13:10.157Z,18.68
2019-03-23T12:14:10.234Z,18.78
2019-03-23T12:15:10.143Z,18.69
2019-03-23T12:16:10.164Z,18.76
2019-03-23T12:17:10.145Z,18.72
2019-03-23T12:18:10.205Z,18.68
2019-03-23T12:19:10.106Z,18.65
2019-03-23T12:20:10.148Z,18.79
2019-03-23T12:21:10.067Z,18.79
2019-03-23T12:22:11.087Z,18.76
2019-03-23T12:23:10.068Z,18.69
2019-03-23T12:24:12.049Z,18.74
2019-03-23T12:25:10.019Z,18.75
2019-03-23T12:26:10.040Z,18.79
2019-03-23T12:27:10.000Z,18.75
2019-03-23T12:28:10.012Z,18.78
2019-03-23T12:29:10.052Z,18.76
2019-03-23T12:30:09.975Z,18.83
2019-03-23T12:31:09.983Z,18.74
2019-03-23T12:32:09.953Z,18.76
2019-03-23T12:33:09.954Z,18.72
2019-03-23T12:34:09.928Z,18.68
2019-03-23T12:35:12.003Z,18.74
2019-03-23T12:36:09.921Z,18.59
2019-03-23T12:37:10.917Z,18.66
2019-03-23T12:38:09.907Z,18.62
2019-03-23T12:39:09.881Z,18.51
2019-03-23T12:40:10.928Z,18.50
2019-03-23T12:41:14.464Z,18.53
2019-03-23T12:42:10.849Z,18.59
2019-03-23T12:43:09.959Z,18.54
2019-03-23T12:44:09.816Z,18.62
2019-03-23T12:45:09.831Z,18.56
2019-03-23T12:46:09.791Z,18.54
2019-03-23T12:47:09.874Z,18.51
2019-03-23T12:48:09.790Z,18.49
2019-03-23T12:49:09.757Z,18.49
2019-03-23T12:50:09.788Z,18.39
2019-03-23T12:51:11.797Z,18.49
2019-03-23T12:52:09.726Z,18.49
2019-03-23T12:53:09.825Z,18.46
2019-03-23T12:54:09.696Z,18.51
2019-03-23T12:55:09.698Z,18.62
2019-03-23T12:56:10.707Z,18.60
2019-03-23T12:57:09.668Z,18.57
2019-03-23T12:58:09.768Z,18.54
2019-03-23T12:59:09.659Z,18.62
2019-03-23T13:00:09.651Z,18.57
2019-03-23T13:01:09.647Z,18.69
2019-03-23T13:02:11.641Z,18.66
2019-03-23T13:03:09.648Z,18.72
2019-03-23T13:04:11.682Z,18.68
2019-03-23T13:05:09.593Z,18.68
2019-03-23T13:06:10.596Z,18.66
2019-03-23T13:07:09.564Z,18.59